createdAt,value
2023-01-17T00:00:41.150Z,93005.88
2023-01-17T00:04:03.528Z,92998.94
2023-01-17T00:07:25.985Z,92999.84
2023-01-17T00:10:30.331Z,92993.78
2023-01-17T00:13:34.187Z,93007.00
2023-01-17T00:16:37.187Z,93005.31
2023-01-17T00:20:12.981Z,93011.13
2023-01-17T00:23:36.048Z,93009.72
2023-01-17T00:27:03.690Z,93013.00
2023-01-17T00:30:07.762Z,93006.09
2023-01-17T00:33:10.966Z,93015.38
2023-01-17T00:36:15.024Z,93015.94
2023-01-17T00:39:17.829Z,93024.47
2023-01-17T00:42:24.579Z,93016.91
2023-01-17T00:45:47.474Z,93017.66
2023-01-17T00:49:10.279Z,93021.06
2023-01-17T00:52:32.304Z,93028.25
2023-01-17T00:55:55.168Z,93024.25
2023-01-17T00:59:20.088Z,93025.06
2023-01-17T01:02:45.118Z,93026.09
2023-01-17T01:06:08.497Z,93029.81
2023-01-17T01:09:30.379Z,93023.06
2023-01-17T01:12:52.613Z,93016.78
2023-01-17T01:16:14.848Z,93018.00
2023-01-17T01:19:36.197Z,93017.75
2023-01-17T01:22:58.075Z,93020.75
2023-01-17T01:26:26.163Z,93030.91
2023-01-17T01:29:47.433Z,93024.97
2023-01-17T01:33:09.191Z,93028.28
2023-01-17T01:36:13.221Z,93024.56
2023-01-17T01:39:17.761Z,93026.09
2023-01-17T01:42:21.614Z,93032.66
2023-01-17T01:45:28.060Z,93037.28
2023-01-17T01:48:44.349Z,93033.69
2023-01-17T01:52:02.377Z,93029.53
2023-01-17T01:55:17.025Z,93037.06
2023-01-17T01:58:25.716Z,93029.31
2023-01-17T02:01:30.232Z,93034.75
2023-01-17T02:04:35.129Z,93034.69
2023-01-17T02:07:47.333Z,93030.69
2023-01-17T02:10:55.668Z,93022.66
2023-01-17T02:13:58.842Z,93023.63
2023-01-17T02:17:24.208Z,93018.28
2023-01-17T02:20:48.669Z,93025.38
2023-01-17T02:24:10.338Z,93018.41
2023-01-17T02:27:39.953Z,93020.25
2023-01-17T02:31:00.977Z,93020.16
2023-01-17T02:34:31.403Z,93011.09
2023-01-17T02:37:47.436Z,93005.25
2023-01-17T02:41:01.139Z,93008.25
2023-01-17T02:44:11.509Z,93005.47
2023-01-17T02:47:38.664Z,92996.75
2023-01-17T02:50:52.585Z,92990.28
2023-01-17T02:54:23.537Z,92998.94
2023-01-17T02:58:05.916Z,92998.97
2023-01-17T03:01:28.466Z,92997.03
2023-01-17T03:04:56.519Z,92994.16
2023-01-17T03:08:01.931Z,92986.25
2023-01-17T03:11:05.282Z,92979.25
2023-01-17T03:14:09.314Z,92978.06
2023-01-17T03:17:12.973Z,92977.47
2023-01-17T03:20:17.523Z,92972.00
2023-01-17T03:23:20.542Z,92967.03
2023-01-17T03:26:24.648Z,92954.00
2023-01-17T03:29:30.959Z,92949.81
2023-01-17T03:32:34.989Z,92940.59
2023-01-17T03:35:38.342Z,92939.94
2023-01-17T03:38:42.428Z,92937.91
2023-01-17T03:41:45.734Z,92936.06
2023-01-17T03:44:49.257Z,92942.53
2023-01-17T03:47:58.289Z,92943.50
2023-01-17T03:51:02.135Z,92931.53
2023-01-17T03:54:05.723Z,92929.34
2023-01-17T03:57:09.188Z,92923.19
2023-01-17T04:00:13.079Z,92920.44
2023-01-17T04:03:17.427Z,92917.13
2023-01-17T04:06:24.065Z,92915.16
2023-01-17T04:09:28.349Z,92903.47
2023-01-17T04:12:34.191Z,92897.22
2023-01-17T04:15:38.260Z,92893.34
2023-01-17T04:18:42.113Z,92895.06
2023-01-17T04:21:45.383Z,92886.06
2023-01-17T04:24:48.957Z,92885.31
2023-01-17T04:27:55.988Z,92886.41
2023-01-17T04:31:00.589Z,92883.81
2023-01-17T04:34:04.251Z,92871.94
2023-01-17T04:37:07.583Z,92868.22
2023-01-17T04:40:12.031Z,92862.66
2023-01-17T04:43:16.860Z,92855.75
2023-01-17T04:46:20.499Z,92853.28
2023-01-17T04:49:26.055Z,92856.03
2023-01-17T04:52:29.560Z,92848.13
2023-01-17T04:55:32.832Z,92845.63
2023-01-17T04:58:35.963Z,92833.59
2023-01-17T05:01:39.918Z,92835.47
2023-01-17T05:04:43.647Z,92828.88
2023-01-17T05:07:55.239Z,92819.19
2023-01-17T05:10:58.462Z,92813.78
2023-01-17T05:14:01.863Z,92813.59
2023-01-17T05:17:04.785Z,92815.03
2023-01-17T05:20:09.897Z,92810.06
2023-01-17T05:23:12.864Z,92810.03
2023-01-17T05:26:16.303Z,92799.00
2023-01-17T05:29:19.438Z,92793.13
2023-01-17T05:32:22.562Z,92789.91
2023-01-17T05:35:29.335Z,92785.72
2023-01-17T05:38:32.437Z,92784.75
2023-01-17T05:41:35.511Z,92784.00
2023-01-17T05:44:39.406Z,92780.13
2023-01-17T05:47:45.824Z,92769.72
2023-01-17T05:50:50.214Z,92761.41
2023-01-17T05:53:56.538Z,92764.31
2023-01-17T05:57:00.173Z,92752.84
2023-01-17T06:00:03.974Z,92746.94
2023-01-17T06:03:07.662Z,92750.00
2023-01-17T06:06:11.313Z,92746.78
2023-01-17T06:09:14.644Z,92753.38
2023-01-17T06:12:18.591Z,92743.31
2023-01-17T06:15:22.041Z,92742.84
2023-01-17T06:18:27.144Z,92736.34
2023-01-17T06:21:31.636Z,92730.19
2023-01-17T06:24:34.759Z,92727.34
2023-01-17T06:27:38.103Z,92725.78
2023-01-17T06:30:42.532Z,92732.03
2023-01-17T06:33:45.901Z,92731.31
2023-01-17T06:36:54.966Z,92722.63
2023-01-17T06:39:59.176Z,92726.41
2023-01-17T06:43:05.467Z,92731.56
2023-01-17T06:46:08.560Z,92720.25
2023-01-17T06:49:12.710Z,92726.66
2023-01-17T06:52:15.710Z,92719.22
2023-01-17T06:55:23.182Z,92714.19
2023-01-17T06:58:26.975Z,92718.66
2023-01-17T07:01:30.510Z,92716.72
2023-01-17T07:04:35.455Z,92701.63
2023-01-17T07:07:39.270Z,92696.13
2023-01-17T07:10:45.531Z,92692.28
2023-01-17T07:13:49.948Z,92691.22
2023-01-17T07:16:53.408Z,92690.28
2023-01-17T07:19:57.234Z,92696.56
2023-01-17T07:23:00.942Z,92686.84
2023-01-17T07:26:08.091Z,92693.91
2023-01-17T07:29:11.357Z,92685.19
2023-01-17T07:32:15.489Z,92686.72
2023-01-17T07:35:18.496Z,92690.09
2023-01-17T07:38:22.823Z,92689.53
2023-01-17T07:41:26.130Z,92685.38
2023-01-17T07:44:29.490Z,92680.84
2023-01-17T07:47:34.659Z,92677.97
2023-01-17T07:50:39.458Z,92692.16
2023-01-17T07:53:43.130Z,92692.38
2023-01-17T07:56:48.167Z,92687.63
2023-01-17T07:59:54.157Z,92687.06
2023-01-17T08:02:59.255Z,92685.94
2023-01-17T08:06:04.080Z,92696.56
2023-01-17T08:09:07.099Z,92681.81
2023-01-17T08:12:11.536Z,92688.06
2023-01-17T08:15:16.686Z,92677.75
2023-01-17T08:18:19.784Z,92681.09
2023-01-17T08:21:24.330Z,92668.84
2023-01-17T08:24:28.197Z,92678.63
2023-01-17T08:27:35.605Z,92668.25
2023-01-17T08:30:40.468Z,92677.44
2023-01-17T08:33:44.043Z,92670.31
2023-01-17T08:36:48.534Z,92657.84
2023-01-17T08:39:51.703Z,92656.53
2023-01-17T08:43:00.391Z,92655.97
2023-01-17T08:46:04.442Z,92640.53
2023-01-17T08:49:07.811Z,92639.06
2023-01-17T08:52:13.728Z,92633.38
2023-01-17T08:55:17.647Z,92632.44
2023-01-17T08:58:20.680Z,92630.28
2023-01-17T09:01:23.910Z,92630.28
2023-01-17T09:04:27.372Z,92631.25
2023-01-17T09:07:31.075Z,92633.63
2023-01-17T09:10:35.424Z,92631.00
2023-01-17T09:13:39.374Z,92641.84
2023-01-17T09:16:43.993Z,92635.06
2023-01-17T09:19:49.193Z,92643.34
2023-01-17T09:22:53.195Z,92642.81
2023-01-17T09:25:59.429Z,92643.72
2023-01-17T09:29:03.166Z,92648.72
2023-01-17T09:32:07.497Z,92654.00
2023-01-17T09:35:12.053Z,92642.47
2023-01-17T09:38:15.859Z,92642.09
2023-01-17T09:41:25.132Z,92637.38
2023-01-17T09:44:42.231Z,92632.25
2023-01-17T09:47:56.372Z,92623.34
2023-01-17T09:51:19.688Z,92628.47
2023-01-17T09:54:31.919Z,92623.34
2023-01-17T09:58:06.595Z,92622.66
2023-01-17T10:01:58.763Z,92617.22
2023-01-17T10:05:32.895Z,92616.84
2023-01-17T10:08:55.731Z,92616.94
2023-01-17T10:12:40.322Z,92632.34
2023-01-17T10:15:58.175Z,92625.38
2023-01-17T10:19:28.732Z,92623.31
2023-01-17T10:23:10.812Z,92621.25
2023-01-17T10:26:26.038Z,92606.81
2023-01-17T10:29:36.365Z,92602.66
2023-01-17T10:32:48.442Z,92598.50
2023-01-17T10:36:05.054Z,92592.72
2023-01-17T10:39:34.966Z,92588.72
2023-01-17T10:42:54.850Z,92590.97
2023-01-17T10:46:01.837Z,92586.84
2023-01-17T10:49:05.622Z,92581.91
2023-01-17T10:52:23.406Z,92577.78
2023-01-17T10:56:01.757Z,92579.16
2023-01-17T10:59:30.492Z,92577.84
2023-01-17T11:02:37.427Z,92571.09
2023-01-17T11:05:43.528Z,92569.25
2023-01-17T11:09:11.233Z,92556.63
2023-01-17T11:12:42.177Z,92566.28
2023-01-17T11:15:52.900Z,92557.59
2023-01-17T11:19:17.394Z,92559.88
2023-01-17T11:22:21.586Z,92554.94
2023-01-17T11:25:28.505Z,92560.16
2023-01-17T11:28:34.078Z,92546.69
2023-01-17T11:31:37.138Z,92538.13
2023-01-17T11:34:40.557Z,92552.13
2023-01-17T11:37:59.283Z,92549.84
2023-01-17T11:41:22.579Z,92545.09
2023-01-17T11:44:35.864Z,92538.78
2023-01-17T11:47:39.587Z,92535.59
2023-01-17T11:50:58.795Z,92522.56
2023-01-17T11:54:26.835Z,92531.91
2023-01-17T11:57:35.086Z,92529.22
2023-01-17T12:00:47.579Z,92524.03
2023-01-17T12:04:25.744Z,92521.88
2023-01-17T12:07:45.531Z,92526.66
2023-01-17T12:11:05.841Z,92531.97
2023-01-17T12:14:32.148Z,92525.91
2023-01-17T12:17:58.934Z,92522.75
2023-01-17T12:21:34.936Z,92517.56
2023-01-17T12:24:50.692Z,92511.59
2023-01-17T12:28:12.397Z,92506.47
2023-01-17T12:31:30.523Z,92499.28
2023-01-17T12:34:47.751Z,92497.47
2023-01-17T12:38:05.302Z,92487.28
2023-01-17T12:41:30.121Z,92492.06
2023-01-17T12:44:45.532Z,92485.56
2023-01-17T12:47:55.073Z,92486.50
2023-01-17T12:51:06.556Z,92483.00
2023-01-17T12:54:20.477Z,92481.81
2023-01-17T12:57:32.971Z,92478.38
2023-01-17T13:00:40.208Z,92474.47
2023-01-17T13:04:01.082Z,92475.38
2023-01-17T13:07:58.048Z,92472.22
2023-01-17T13:11:16.811Z,92472.09
2023-01-17T13:14:20.807Z,92481.00
2023-01-17T13:17:47.589Z,92460.09
2023-01-17T13:21:14.833Z,92465.50
2023-01-17T13:24:49.726Z,92457.34
2023-01-17T13:28:01.339Z,92453.06
2023-01-17T13:31:19.859Z,92454.59
2023-01-17T13:34:42.585Z,92456.16
2023-01-17T13:38:07.542Z,92451.69
2023-01-17T13:42:03.768Z,92454.22
2023-01-17T13:45:18.751Z,92444.53
2023-01-17T13:48:23.234Z,92445.78
2023-01-17T13:52:05.342Z,92441.34
2023-01-17T13:56:05.245Z,92443.16
2023-01-17T13:59:31.157Z,92429.00
2023-01-17T14:02:34.417Z,92426.44
2023-01-17T14:05:41.574Z,92431.16
2023-01-17T14:08:47.181Z,92416.00
2023-01-17T14:12:25.869Z,92409.16
2023-01-17T14:15:32.296Z,92411.97
2023-01-17T14:18:44.017Z,92412.88
2023-01-17T14:21:49.425Z,92406.78
2023-01-17T14:25:14.688Z,92403.63
2023-01-17T14:28:30.239Z,92398.28
2023-01-17T14:31:37.901Z,92399.22
2023-01-17T14:34:43.750Z,92394.56
2023-01-17T14:37:58.123Z,92399.00
2023-01-17T14:41:08.397Z,92384.63
2023-01-17T14:44:12.398Z,92391.72
2023-01-17T14:47:16.497Z,92391.38
2023-01-17T14:50:23.812Z,92386.16
2023-01-17T14:53:30.319Z,92376.25
2023-01-17T14:56:35.198Z,92381.72
2023-01-17T14:59:38.573Z,92376.66
2023-01-17T15:02:49.441Z,92372.97
2023-01-17T15:05:55.945Z,92356.50
2023-01-17T15:09:02.220Z,92352.97
2023-01-17T15:12:12.079Z,92356.69
2023-01-17T15:15:36.065Z,92358.13
2023-01-17T15:18:42.682Z,92351.06
2023-01-17T15:21:51.235Z,92350.88
2023-01-17T15:24:58.294Z,92345.84
2023-01-17T15:28:07.073Z,92355.38
2023-01-17T15:31:23.686Z,92347.69
2023-01-17T15:34:29.091Z,92340.75
2023-01-17T15:37:36.463Z,92339.84
2023-01-17T15:40:44.389Z,92327.56
2023-01-17T15:43:48.311Z,92325.50
2023-01-17T15:46:52.020Z,92316.44
2023-01-17T15:49:55.222Z,92312.06
2023-01-17T15:53:05.875Z,92309.50
2023-01-17T15:56:35.955Z,92307.03
2023-01-17T15:59:53.038Z,92311.13
2023-01-17T16:03:28.304Z,92308.59
2023-01-17T16:06:46.162Z,92309.91
2023-01-17T16:09:50.330Z,92304.91
2023-01-17T16:12:56.684Z,92304.19
2023-01-17T16:16:25.846Z,92308.81
2023-01-17T16:19:35.528Z,92304.66
2023-01-17T16:22:41.392Z,92309.97
2023-01-17T16:25:56.383Z,92309.38
2023-01-17T16:29:00.377Z,92318.25
2023-01-17T16:32:11.490Z,92310.66
2023-01-17T16:35:32.410Z,92306.94
2023-01-17T16:38:36.513Z,92312.53
2023-01-17T16:41:43.133Z,92299.69
2023-01-17T16:44:47.101Z,92294.81
2023-01-17T16:47:59.733Z,92300.75
2023-01-17T16:51:06.883Z,92287.41
2023-01-17T16:54:10.050Z,92294.53
2023-01-17T16:57:17.718Z,92291.00
2023-01-17T17:00:23.213Z,92258.16
2023-01-17T17:03:27.684Z,92274.13
2023-01-17T17:06:32.797Z,92272.53
2023-01-17T17:09:36.816Z,92266.09
2023-01-17T17:12:40.644Z,92253.72
2023-01-17T17:15:45.518Z,92246.41
2023-01-17T17:19:10.632Z,92247.34
2023-01-17T17:22:14.140Z,92239.06
2023-01-17T17:25:17.720Z,92245.72
2023-01-17T17:28:21.735Z,92232.50
2023-01-17T17:31:28.925Z,92242.81
2023-01-17T17:34:37.312Z,92233.66
2023-01-17T17:37:43.496Z,92230.84
2023-01-17T17:40:53.656Z,92238.09
2023-01-17T17:43:57.800Z,92224.16
2023-01-17T17:47:12.464Z,92233.75
2023-01-17T17:50:17.923Z,92235.00
2023-01-17T17:53:28.209Z,92233.16
2023-01-17T17:56:33.300Z,92238.38
2023-01-17T17:59:37.500Z,92235.00
2023-01-17T18:02:40.594Z,92235.91
2023-01-17T18:05:50.655Z,92230.25
2023-01-17T18:08:54.305Z,92233.91
2023-01-17T18:11:59.161Z,92231.78
2023-01-17T18:15:02.171Z,92229.47
2023-01-17T18:18:05.852Z,92222.13
2023-01-17T18:21:14.857Z,92224.00
2023-01-17T18:24:20.502Z,92222.81
2023-01-17T18:27:23.735Z,92226.44
2023-01-17T18:30:27.585Z,92222.00
2023-01-17T18:33:30.883Z,92219.19
2023-01-17T18:36:35.490Z,92209.84
2023-01-17T18:39:41.197Z,92209.31
2023-01-17T18:42:44.695Z,92201.81
2023-01-17T18:45:54.334Z,92198.69
2023-01-17T18:49:02.044Z,92197.09
2023-01-17T18:52:08.295Z,92197.19
2023-01-17T18:55:11.678Z,92186.97
2023-01-17T18:58:15.781Z,92186.72
2023-01-17T19:01:24.027Z,92191.13
2023-01-17T19:04:31.902Z,92182.28
2023-01-17T19:07:38.302Z,92186.72
2023-01-17T19:10:43.235Z,92186.72
2023-01-17T19:13:46.558Z,92178.94
2023-01-17T19:16:53.100Z,92174.38
2023-01-17T19:19:57.181Z,92180.31
2023-01-17T19:23:00.347Z,92178.38
2023-01-17T19:26:05.211Z,92166.44
2023-01-17T19:29:08.651Z,92182.31
2023-01-17T19:32:12.231Z,92176.94
2023-01-17T19:35:17.104Z,92172.59
2023-01-17T19:38:28.093Z,92178.81
2023-01-17T19:41:32.774Z,92171.03
2023-01-17T19:44:41.760Z,92177.34
2023-01-17T19:47:55.086Z,92168.53
2023-01-17T19:51:08.196Z,92165.75
2023-01-17T19:54:11.398Z,92159.44
2023-01-17T19:57:18.435Z,92158.75
2023-01-17T20:00:30.057Z,92160.78
2023-01-17T20:03:33.940Z,92167.97
2023-01-17T20:06:37.580Z,92165.97
2023-01-17T20:09:41.535Z,92165.38
2023-01-17T20:12:44.584Z,92168.63
2023-01-17T20:15:47.789Z,92159.34
2023-01-17T20:18:52.335Z,92154.94
2023-01-17T20:21:56.103Z,92154.69
2023-01-17T20:24:59.698Z,92151.72
2023-01-17T20:28:05.451Z,92159.50
2023-01-17T20:31:16.702Z,92149.66
2023-01-17T20:34:20.910Z,92142.56
2023-01-17T20:37:23.974Z,92146.50
2023-01-17T20:40:27.215Z,92150.06
2023-01-17T20:43:31.465Z,92143.88
2023-01-17T20:46:41.761Z,92134.84
2023-01-17T20:49:44.838Z,92134.16
2023-01-17T20:52:50.496Z,92136.22
2023-01-17T20:55:58.165Z,92135.03
2023-01-17T20:59:16.297Z,92141.03
2023-01-17T21:02:20.271Z,92136.63
2023-01-17T21:05:26.818Z,92129.19
2023-01-17T21:08:32.533Z,92120.66
2023-01-17T21:11:38.423Z,92114.66
2023-01-17T21:14:44.030Z,92108.56
2023-01-17T21:17:48.151Z,92107.53
2023-01-17T21:20:56.798Z,92120.00
2023-01-17T21:24:02.653Z,92124.00
2023-01-17T21:27:07.960Z,92116.47
2023-01-17T21:30:13.276Z,92107.06
2023-01-17T21:33:17.123Z,92108.16
2023-01-17T21:36:25.825Z,92102.28
2023-01-17T21:39:30.202Z,92098.03
2023-01-17T21:42:38.423Z,92101.50
2023-01-17T21:45:46.025Z,92102.38
2023-01-17T21:48:50.265Z,92099.63
2023-01-17T21:51:53.378Z,92104.38
2023-01-17T21:55:15.431Z,92111.28
2023-01-17T21:58:38.711Z,92115.66
2023-01-17T22:01:41.842Z,92121.47
2023-01-17T22:04:45.382Z,92119.16
2023-01-17T22:08:07.250Z,92118.59
2023-01-17T22:11:19.231Z,92116.56
2023-01-17T22:14:22.333Z,92114.47
2023-01-17T22:17:25.919Z,92123.47
2023-01-17T22:20:29.338Z,92118.50
2023-01-17T22:23:37.971Z,92119.34
2023-01-17T22:26:42.011Z,92127.94
2023-01-17T22:29:45.170Z,92118.50
2023-01-17T22:32:51.549Z,92119.13
2023-01-17T22:36:01.017Z,92122.22
2023-01-17T22:39:10.471Z,92122.69
2023-01-17T22:42:17.442Z,92125.63
2023-01-17T22:45:22.085Z,92125.56
2023-01-17T22:48:25.119Z,92131.84
2023-01-17T22:51:32.005Z,92133.72
2023-01-17T22:54:41.703Z,92129.06
2023-01-17T22:57:47.670Z,92140.56
2023-01-17T23:00:51.506Z,92147.66
2023-01-17T23:04:06.341Z,92149.94
2023-01-17T23:07:09.621Z,92154.16
2023-01-17T23:10:35.231Z,92151.69
2023-01-17T23:13:38.585Z,92148.94
2023-01-17T23:17:11.072Z,92158.19
2023-01-17T23:20:17.047Z,92155.31
2023-01-17T23:23:21.103Z,92157.06
2023-01-17T23:26:24.255Z,92151.59
2023-01-17T23:29:28.643Z,92165.03
2023-01-17T23:32:32.550Z,92173.38
2023-01-17T23:35:42.109Z,92163.34
2023-01-17T23:38:46.332Z,92175.94
2023-01-17T23:42:07.978Z,92175.81
2023-01-17T23:45:11.453Z,92179.34
2023-01-17T23:48:15.886Z,92190.38
2023-01-17T23:51:19.512Z,92191.31
2023-01-17T23:54:22.586Z,92185.47
2023-01-17T23:57:26.705Z,92190.66
